All Spectrum Aviation - Van Nuys Airport - KVNY

HOME

Van Nuys Tower Recordings

Condor Squadron KVNY Webcam

Visit our Electronics Store

Condor Squadron Webcam - Van Nuys Airport - KVNY
Picture taken: Fri, 20 Jul 2018 06:52:20 -0700
YouTube Channel!    Latest Timelapse Movie    Full Size Image    Regular Size Image    

2018/07/20 12:51 KVNY 201251Z AUTO 12004KT 10SM CLR 22/17 A2993 RMK AO2 SLP127 T02170167

HOME

Van Nuys Tower Recordings

Condor Squadron KVNY Webcam

Visit our Electronics Store